sensor_id;sensor_type;location;lat;lon;timestamp;P1;durP1;ratioP1;P2;durP2;ratioP2
17943;SDS011;9097;47.028;15.444;2023-02-01T00:00:47;2.57;;;1.60;;
17943;SDS011;9097;47.028;15.444;2023-02-01T00:03:49;4.17;;;2.27;;
17943;SDS011;9097;47.028;15.444;2023-02-01T00:06:52;3.13;;;2.87;;
17943;SDS011;9097;47.028;15.444;2023-02-01T00:09:54;2.73;;;2.23;;
17943;SDS011;9097;47.028;15.444;2023-02-01T00:12:58;3.83;;;2.40;;
17943;SDS011;9097;47.028;15.444;2023-02-01T00:16:04;7.47;;;3.83;;
17943;SDS011;9097;47.028;15.444;2023-02-01T00:19:09;6.90;;;2.73;;
17943;SDS011;9097;47.028;15.444;2023-02-01T00:22:13;4.80;;;2.17;;
17943;SDS011;9097;47.028;15.444;2023-02-01T00:25:15;12.10;;;2.73;;
17943;SDS011;9097;47.028;15.444;2023-02-01T00:28:19;5.70;;;2.73;;
17943;SDS011;9097;47.028;15.444;2023-02-01T00:31:21;2.87;;;1.37;;
17943;SDS011;9097;47.028;15.444;2023-02-01T00:34:24;5.63;;;3.00;;
17943;SDS011;9097;47.028;15.444;2023-02-01T00:37:26;4.20;;;3.27;;
17943;SDS011;9097;47.028;15.444;2023-02-01T00:40:28;5.30;;;1.80;;
17943;SDS011;9097;47.028;15.444;2023-02-01T00:43:33;3.17;;;2.43;;
17943;SDS011;9097;47.028;15.444;2023-02-01T00:46:35;12.23;;;3.97;;
17943;SDS011;9097;47.028;15.444;2023-02-01T00:49:38;1.60;;;1.10;;
17943;SDS011;9097;47.028;15.444;2023-02-01T00:52:40;2.10;;;1.77;;
17943;SDS011;9097;47.028;15.444;2023-02-01T00:55:44;4.23;;;2.33;;
17943;SDS011;9097;47.028;15.444;2023-02-01T00:58:48;5.83;;;1.63;;
17943;SDS011;9097;47.028;15.444;2023-02-01T01:01:51;1.63;;;1.53;;
17943;SDS011;9097;47.028;15.444;2023-02-01T01:04:53;9.63;;;2.33;;
17943;SDS011;9097;47.028;15.444;2023-02-01T01:07:56;5.93;;;2.00;;
17943;SDS011;9097;47.028;15.444;2023-02-01T01:10:58;2.27;;;1.50;;
17943;SDS011;9097;47.028;15.444;2023-02-01T01:14:06;5.50;;;2.00;;
17943;SDS011;9097;47.028;15.444;2023-02-01T01:17:12;7.67;;;2.40;;
17943;SDS011;9097;47.028;15.444;2023-02-01T01:20:14;4.00;;;2.20;;
17943;SDS011;9097;47.028;15.444;2023-02-01T01:23:17;4.97;;;2.90;;
17943;SDS011;9097;47.028;15.444;2023-02-01T01:26:20;4.87;;;2.33;;
17943;SDS011;9097;47.028;15.444;2023-02-01T01:29:25;2.90;;;1.77;;
17943;SDS011;9097;47.028;15.444;2023-02-01T01:32:27;4.60;;;1.50;;
17943;SDS011;9097;47.028;15.444;2023-02-01T01:35:30;7.63;;;3.30;;
17943;SDS011;9097;47.028;15.444;2023-02-01T01:38:33;2.40;;;1.60;;
17943;SDS011;9097;47.028;15.444;2023-02-01T01:41:39;2.03;;;0.97;;
17943;SDS011;9097;47.028;15.444;2023-02-01T01:44:57;8.80;;;2.20;;
17943;SDS011;9097;47.028;15.444;2023-02-01T01:48:05;9.57;;;3.63;;
17943;SDS011;9097;47.028;15.444;2023-02-01T01:51:11;3.63;;;2.77;;
17943;SDS011;9097;47.028;15.444;2023-02-01T01:54:18;3.90;;;1.77;;
17943;SDS011;9097;47.028;15.444;2023-02-01T01:57:24;2.47;;;1.90;;
17943;SDS011;9097;47.028;15.444;2023-02-01T02:00:32;3.17;;;1.13;;
17943;SDS011;9097;47.028;15.444;2023-02-01T02:03:37;1.37;;;1.27;;
17943;SDS011;9097;47.028;15.444;2023-02-01T02:06:45;5.07;;;2.17;;
17943;SDS011;9097;47.028;15.444;2023-02-01T02:09:51;2.53;;;1.13;;
17943;SDS011;9097;47.028;15.444;2023-02-01T02:12:53;4.20;;;2.67;;
17943;SDS011;9097;47.028;15.444;2023-02-01T02:16:05;2.83;;;1.60;;
17943;SDS011;9097;47.028;15.444;2023-02-01T02:19:32;5.47;;;2.03;;
17943;SDS011;9097;47.028;15.444;2023-02-01T02:26:33;5.13;;;2.93;;
17943;SDS011;9097;47.028;15.444;2023-02-01T02:29:54;2.57;;;2.23;;
17943;SDS011;9097;47.028;15.444;2023-02-01T02:33:36;2.40;;;1.77;;
17943;SDS011;9097;47.028;15.444;2023-02-01T02:36:51;3.70;;;2.83;;
17943;SDS011;9097;47.028;15.444;2023-02-01T02:39:59;0.93;;;0.93;;
17943;SDS011;9097;47.028;15.444;2023-02-01T02:43:09;0.53;;;0.53;;
17943;SDS011;9097;47.028;15.444;2023-02-01T02:46:33;4.97;;;2.90;;
17943;SDS011;9097;47.028;15.444;2023-02-01T02:50:01;1.87;;;1.47;;
17943;SDS011;9097;47.028;15.444;2023-02-01T02:53:25;3.13;;;1.57;;
17943;SDS011;9097;47.028;15.444;2023-02-01T02:56:53;12.43;;;2.60;;
17943;SDS011;9097;47.028;15.444;2023-02-01T03:00:14;3.00;;;2.70;;
17943;SDS011;9097;47.028;15.444;2023-02-01T03:03:36;2.73;;;1.30;;
17943;SDS011;9097;47.028;15.444;2023-02-01T03:07:08;1.97;;;1.77;;
17943;SDS011;9097;47.028;15.444;2023-02-01T03:10:15;1.80;;;1.37;;
17943;SDS011;9097;47.028;15.444;2023-02-01T03:13:21;5.07;;;1.60;;
17943;SDS011;9097;47.028;15.444;2023-02-01T03:16:26;2.70;;;0.90;;
17943;SDS011;9097;47.028;15.444;2023-02-01T03:19:31;2.80;;;0.87;;
17943;SDS011;9097;47.028;15.444;2023-02-01T03:22:37;10.20;;;2.30;;
17943;SDS011;9097;47.028;15.444;2023-02-01T03:25:40;7.83;;;1.13;;
17943;SDS011;9097;47.028;15.444;2023-02-01T03:28:44;5.53;;;1.47;;
17943;SDS011;9097;47.028;15.444;2023-02-01T03:31:47;6.27;;;2.77;;
17943;SDS011;9097;47.028;15.444;2023-02-01T03:34:50;2.67;;;1.40;;
17943;SDS011;9097;47.028;15.444;2023-02-01T03:37:56;2.27;;;1.10;;
17943;SDS011;9097;47.028;15.444;2023-02-01T03:41:07;0.83;;;0.67;;
17943;SDS011;9097;47.028;15.444;2023-02-01T03:44:12;2.43;;;1.13;;
17943;SDS011;9097;47.028;15.444;2023-02-01T03:47:16;5.70;;;3.50;;
17943;SDS011;9097;47.028;15.444;2023-02-01T03:50:21;1.10;;;1.03;;
17943;SDS011;9097;47.028;15.444;2023-02-01T03:53:26;3.37;;;2.70;;
17943;SDS011;9097;47.028;15.444;2023-02-01T03:56:30;1.17;;;1.07;;
17943;SDS011;9097;47.028;15.444;2023-02-01T03:59:33;4.33;;;1.37;;
17943;SDS011;9097;47.028;15.444;2023-02-01T04:02:36;1.50;;;1.00;;
17943;SDS011;9097;47.028;15.444;2023-02-01T04:05:41;1.30;;;1.20;;
17943;SDS011;9097;47.028;15.444;2023-02-01T04:08:45;5.87;;;1.77;;
17943;SDS011;9097;47.028;15.444;2023-02-01T04:11:47;1.97;;;1.17;;
17943;SDS011;9097;47.028;15.444;2023-02-01T04:14:49;7.77;;;2.30;;
17943;SDS011;9097;47.028;15.444;2023-02-01T04:17:52;6.77;;;1.60;;
17943;SDS011;9097;47.028;15.444;2023-02-01T04:20:54;2.37;;;1.80;;
17943;SDS011;9097;47.028;15.444;2023-02-01T04:23:58;3.33;;;1.70;;
17943;SDS011;9097;47.028;15.444;2023-02-01T04:27:01;1.63;;;1.47;;
17943;SDS011;9097;47.028;15.444;2023-02-01T04:30:04;4.00;;;2.83;;
17943;SDS011;9097;47.028;15.444;2023-02-01T04:33:09;1.70;;;1.20;;
17943;SDS011;9097;47.028;15.444;2023-02-01T04:36:14;0.87;;;0.87;;
17943;SDS011;9097;47.028;15.444;2023-02-01T04:39:21;6.07;;;2.00;;
17943;SDS011;9097;47.028;15.444;2023-02-01T04:42:23;2.20;;;2.07;;
17943;SDS011;9097;47.028;15.444;2023-02-01T04:45:26;2.73;;;1.20;;
17943;SDS011;9097;47.028;15.444;2023-02-01T04:48:28;2.20;;;1.60;;
17943;SDS011;9097;47.028;15.444;2023-02-01T04:51:31;6.40;;;3.57;;
17943;SDS011;9097;47.028;15.444;2023-02-01T04:54:35;9.03;;;1.37;;
17943;SDS011;9097;47.028;15.444;2023-02-01T04:57:37;1.87;;;1.43;;
17943;SDS011;9097;47.028;15.444;2023-02-01T05:00:40;5.93;;;2.43;;
17943;SDS011;9097;47.028;15.444;2023-02-01T05:03:42;1.50;;;0.90;;
17943;SDS011;9097;47.028;15.444;2023-02-01T05:06:45;5.73;;;1.63;;
17943;SDS011;9097;47.028;15.444;2023-02-01T05:09:49;4.20;;;2.03;;
17943;SDS011;9097;47.028;15.444;2023-02-01T05:12:51;1.40;;;1.33;;
17943;SDS011;9097;47.028;15.444;2023-02-01T05:16:11;9.10;;;3.07;;
17943;SDS011;9097;47.028;15.444;2023-02-01T05:19:14;1.10;;;0.90;;
17943;SDS011;9097;47.028;15.444;2023-02-01T05:22:16;2.97;;;1.47;;
17943;SDS011;9097;47.028;15.444;2023-02-01T05:25:20;2.87;;;1.90;;
17943;SDS011;9097;47.028;15.444;2023-02-01T05:28:23;3.60;;;1.53;;
17943;SDS011;9097;47.028;15.444;2023-02-01T05:31:25;2.27;;;2.13;;
17943;SDS011;9097;47.028;15.444;2023-02-01T05:34:28;2.27;;;1.67;;
17943;SDS011;9097;47.028;15.444;2023-02-01T05:37:30;13.27;;;4.90;;
17943;SDS011;9097;47.028;15.444;2023-02-01T05:40:34;8.47;;;3.50;;
17943;SDS011;9097;47.028;15.444;2023-02-01T05:43:38;6.80;;;3.97;;
17943;SDS011;9097;47.028;15.444;2023-02-01T05:46:40;3.37;;;2.07;;
17943;SDS011;9097;47.028;15.444;2023-02-01T05:49:43;2.40;;;1.33;;
17943;SDS011;9097;47.028;15.444;2023-02-01T05:52:45;5.27;;;2.27;;
17943;SDS011;9097;47.028;15.444;2023-02-01T05:55:51;1.43;;;1.33;;
17943;SDS011;9097;47.028;15.444;2023-02-01T05:58:53;1.53;;;1.17;;
17943;SDS011;9097;47.028;15.444;2023-02-01T06:01:55;6.63;;;2.73;;
17943;SDS011;9097;47.028;15.444;2023-02-01T06:04:58;1.97;;;1.87;;
17943;SDS011;9097;47.028;15.444;2023-02-01T06:08:00;1.73;;;1.67;;
17943;SDS011;9097;47.028;15.444;2023-02-01T06:11:05;9.23;;;2.30;;
17943;SDS011;9097;47.028;15.444;2023-02-01T06:14:07;17.80;;;2.83;;
17943;SDS011;9097;47.028;15.444;2023-02-01T06:17:10;5.73;;;3.33;;
17943;SDS011;9097;47.028;15.444;2023-02-01T06:20:13;4.40;;;2.30;;
17943;SDS011;9097;47.028;15.444;2023-02-01T06:23:16;3.20;;;1.53;;
17943;SDS011;9097;47.028;15.444;2023-02-01T06:26:21;5.10;;;3.43;;
17943;SDS011;9097;47.028;15.444;2023-02-01T06:29:23;2.17;;;1.87;;
17943;SDS011;9097;47.028;15.444;2023-02-01T06:32:26;1.83;;;1.63;;
17943;SDS011;9097;47.028;15.444;2023-02-01T06:35:29;2.70;;;1.83;;
17943;SDS011;9097;47.028;15.444;2023-02-01T06:38:31;4.47;;;2.10;;
17943;SDS011;9097;47.028;15.444;2023-02-01T06:41:36;2.03;;;1.50;;
17943;SDS011;9097;47.028;15.444;2023-02-01T06:44:39;2.13;;;1.30;;
17943;SDS011;9097;47.028;15.444;2023-02-01T06:47:41;4.63;;;1.73;;
17943;SDS011;9097;47.028;15.444;2023-02-01T06:50:43;15.80;;;3.17;;
17943;SDS011;9097;47.028;15.444;2023-02-01T06:53:46;8.40;;;3.43;;
17943;SDS011;9097;47.028;15.444;2023-02-01T06:56:49;10.03;;;2.83;;
17943;SDS011;9097;47.028;15.444;2023-02-01T06:59:51;6.23;;;2.07;;
17943;SDS011;9097;47.028;15.444;2023-02-01T07:02:54;7.27;;;3.17;;
17943;SDS011;9097;47.028;15.444;2023-02-01T07:05:56;4.93;;;3.23;;
17943;SDS011;9097;47.028;15.444;2023-02-01T07:08:59;8.77;;;2.73;;
17943;SDS011;9097;47.028;15.444;2023-02-01T07:12:03;1.50;;;1.40;;
17943;SDS011;9097;47.028;15.444;2023-02-01T07:15:06;6.60;;;4.47;;
17943;SDS011;9097;47.028;15.444;2023-02-01T07:18:09;2.70;;;2.27;;
17943;SDS011;9097;47.028;15.444;2023-02-01T07:21:11;13.43;;;3.57;;
17943;SDS011;9097;47.028;15.444;2023-02-01T07:24:14;7.83;;;3.13;;
17943;SDS011;9097;47.028;15.444;2023-02-01T07:27:17;8.67;;;2.97;;
17943;SDS011;9097;47.028;15.444;2023-02-01T07:30:20;1.30;;;1.20;;
17943;SDS011;9097;47.028;15.444;2023-02-01T07:33:23;1.40;;;1.30;;
17943;SDS011;9097;47.028;15.444;2023-02-01T07:36:26;5.80;;;3.37;;
17943;SDS011;9097;47.028;15.444;2023-02-01T07:39:29;4.53;;;2.70;;
17943;SDS011;9097;47.028;15.444;2023-02-01T07:42:33;2.63;;;2.03;;
17943;SDS011;9097;47.028;15.444;2023-02-01T07:45:35;2.43;;;1.83;;
17943;SDS011;9097;47.028;15.444;2023-02-01T07:48:38;3.40;;;3.10;;
17943;SDS011;9097;47.028;15.444;2023-02-01T07:51:40;3.57;;;1.67;;
17943;SDS011;9097;47.028;15.444;2023-02-01T07:54:42;7.03;;;2.30;;
17943;SDS011;9097;47.028;15.444;2023-02-01T07:57:46;3.30;;;2.20;;
17943;SDS011;9097;47.028;15.444;2023-02-01T08:00:49;7.30;;;2.37;;
17943;SDS011;9097;47.028;15.444;2023-02-01T08:04:05;3.70;;;2.47;;
17943;SDS011;9097;47.028;15.444;2023-02-01T08:07:07;4.70;;;3.10;;
17943;SDS011;9097;47.028;15.444;2023-02-01T08:10:09;5.33;;;2.40;;
17943;SDS011;9097;47.028;15.444;2023-02-01T08:13:13;3.10;;;2.23;;
17943;SDS011;9097;47.028;15.444;2023-02-01T08:16:16;2.87;;;2.13;;
17943;SDS011;9097;47.028;15.444;2023-02-01T08:19:19;3.20;;;1.50;;
17943;SDS011;9097;47.028;15.444;2023-02-01T08:22:22;7.27;;;2.50;;
17943;SDS011;9097;47.028;15.444;2023-02-01T08:25:24;2.83;;;1.63;;
17943;SDS011;9097;47.028;15.444;2023-02-01T08:28:29;3.90;;;1.63;;
17943;SDS011;9097;47.028;15.444;2023-02-01T08:31:31;2.03;;;1.57;;
17943;SDS011;9097;47.028;15.444;2023-02-01T08:34:33;7.47;;;2.47;;
17943;SDS011;9097;47.028;15.444;2023-02-01T08:37:36;8.67;;;2.57;;
17943;SDS011;9097;47.028;15.444;2023-02-01T08:40:38;4.20;;;1.87;;
17943;SDS011;9097;47.028;15.444;2023-02-01T08:43:43;3.07;;;1.93;;
17943;SDS011;9097;47.028;15.444;2023-02-01T08:46:46;8.53;;;1.70;;
17943;SDS011;9097;47.028;15.444;2023-02-01T08:49:48;1.90;;;1.53;;
17943;SDS011;9097;47.028;15.444;2023-02-01T08:52:52;2.40;;;1.60;;
17943;SDS011;9097;47.028;15.444;2023-02-01T08:55:54;3.73;;;1.47;;
17943;SDS011;9097;47.028;15.444;2023-02-01T08:58:58;2.53;;;1.23;;
17943;SDS011;9097;47.028;15.444;2023-02-01T09:02:01;4.57;;;2.07;;
17943;SDS011;9097;47.028;15.444;2023-02-01T09:05:03;4.53;;;1.80;;
17943;SDS011;9097;47.028;15.444;2023-02-01T09:08:06;3.90;;;2.03;;
17943;SDS011;9097;47.028;15.444;2023-02-01T09:11:10;5.70;;;2.22;;
17943;SDS011;9097;47.028;15.444;2023-02-01T09:14:14;3.03;;;1.90;;
17943;SDS011;9097;47.028;15.444;2023-02-01T09:17:17;5.35;;;2.20;;
17943;SDS011;9097;47.028;15.444;2023-02-01T09:20:19;7.25;;;2.35;;
17943;SDS011;9097;47.028;15.444;2023-02-01T09:23:24;5.05;;;2.42;;
17943;SDS011;9097;47.028;15.444;2023-02-01T09:26:26;4.30;;;2.40;;
17943;SDS011;9097;47.028;15.444;2023-02-01T09:29:30;6.60;;;3.15;;
17943;SDS011;9097;47.028;15.444;2023-02-01T09:32:33;5.57;;;2.47;;
17943;SDS011;9097;47.028;15.444;2023-02-01T09:35:35;3.53;;;2.80;;
17943;SDS011;9097;47.028;15.444;2023-02-01T09:38:38;4.88;;;2.58;;
17943;SDS011;9097;47.028;15.444;2023-02-01T09:41:43;3.60;;;2.72;;
17943;SDS011;9097;47.028;15.444;2023-02-01T09:44:56;5.45;;;3.20;;
17943;SDS011;9097;47.028;15.444;2023-02-01T09:48:02;6.45;;;3.25;;
17943;SDS011;9097;47.028;15.444;2023-02-01T09:51:09;6.70;;;3.47;;
17943;SDS011;9097;47.028;15.444;2023-02-01T09:54:13;5.63;;;2.90;;
17943;SDS011;9097;47.028;15.444;2023-02-01T09:57:18;10.63;;;3.78;;
17943;SDS011;9097;47.028;15.444;2023-02-01T10:00:24;4.88;;;3.25;;
17943;SDS011;9097;47.028;15.444;2023-02-01T10:03:28;3.85;;;3.03;;
17943;SDS011;9097;47.028;15.444;2023-02-01T10:06:33;3.88;;;2.28;;
17943;SDS011;9097;47.028;15.444;2023-02-01T10:09:52;2.75;;;2.40;;
17943;SDS011;9097;47.028;15.444;2023-02-01T10:12:59;4.10;;;2.05;;
17943;SDS011;9097;47.028;15.444;2023-02-01T10:16:11;5.13;;;1.88;;
17943;SDS011;9097;47.028;15.444;2023-02-01T10:19:28;4.10;;;2.20;;
17943;SDS011;9097;47.028;15.444;2023-02-01T10:22:35;3.85;;;1.77;;
17943;SDS011;9097;47.028;15.444;2023-02-01T10:25:43;5.93;;;2.78;;
17943;SDS011;9097;47.028;15.444;2023-02-01T10:28:48;2.50;;;2.05;;
17943;SDS011;9097;47.028;15.444;2023-02-01T10:31:53;2.80;;;1.50;;
17943;SDS011;9097;47.028;15.444;2023-02-01T10:34:57;6.90;;;1.70;;
17943;SDS011;9097;47.028;15.444;2023-02-01T10:38:00;5.78;;;2.20;;
17943;SDS011;9097;47.028;15.444;2023-02-01T10:41:04;3.50;;;1.80;;
17943;SDS011;9097;47.028;15.444;2023-02-01T10:44:10;4.57;;;1.95;;
17943;SDS011;9097;47.028;15.444;2023-02-01T10:47:15;2.47;;;1.75;;
17943;SDS011;9097;47.028;15.444;2023-02-01T10:50:19;3.63;;;2.13;;
17943;SDS011;9097;47.028;15.444;2023-02-01T10:53:27;4.13;;;2.17;;
17943;SDS011;9097;47.028;15.444;2023-02-01T10:56:31;3.90;;;1.90;;
17943;SDS011;9097;47.028;15.444;2023-02-01T10:59:34;8.77;;;2.70;;
17943;SDS011;9097;47.028;15.444;2023-02-01T11:02:39;4.80;;;2.85;;
17943;SDS011;9097;47.028;15.444;2023-02-01T11:05:44;8.20;;;2.95;;
17943;SDS011;9097;47.028;15.444;2023-02-01T11:08:48;5.50;;;2.60;;
17943;SDS011;9097;47.028;15.444;2023-02-01T11:11:55;4.37;;;2.20;;
17943;SDS011;9097;47.028;15.444;2023-02-01T11:15:01;2.63;;;1.88;;
17943;SDS011;9097;47.028;15.444;2023-02-01T11:18:15;3.37;;;1.77;;
17943;SDS011;9097;47.028;15.444;2023-02-01T11:21:19;7.53;;;2.90;;
17943;SDS011;9097;47.028;15.444;2023-02-01T11:24:23;3.73;;;2.50;;
17943;SDS011;9097;47.028;15.444;2023-02-01T11:27:28;4.10;;;2.43;;
17943;SDS011;9097;47.028;15.444;2023-02-01T11:30:34;5.77;;;2.70;;
17943;SDS011;9097;47.028;15.444;2023-02-01T11:33:45;4.80;;;2.43;;
17943;SDS011;9097;47.028;15.444;2023-02-01T11:36:51;5.50;;;1.67;;
17943;SDS011;9097;47.028;15.444;2023-02-01T11:40:00;2.27;;;1.70;;
17943;SDS011;9097;47.028;15.444;2023-02-01T11:43:07;3.87;;;2.10;;
17943;SDS011;9097;47.028;15.444;2023-02-01T11:46:16;4.30;;;2.10;;
17943;SDS011;9097;47.028;15.444;2023-02-01T11:49:26;5.57;;;2.27;;
17943;SDS011;9097;47.028;15.444;2023-02-01T11:52:38;4.83;;;2.53;;
17943;SDS011;9097;47.028;15.444;2023-02-01T11:55:55;3.73;;;2.13;;
17943;SDS011;9097;47.028;15.444;2023-02-01T11:59:23;2.57;;;1.57;;
17943;SDS011;9097;47.028;15.444;2023-02-01T12:02:55;3.93;;;1.80;;
17943;SDS011;9097;47.028;15.444;2023-02-01T12:06:15;3.60;;;2.80;;
17943;SDS011;9097;47.028;15.444;2023-02-01T12:09:29;2.30;;;1.50;;
17943;SDS011;9097;47.028;15.444;2023-02-01T12:12:43;1.73;;;1.00;;
17943;SDS011;9097;47.028;15.444;2023-02-01T12:16:09;1.30;;;1.10;;
17943;SDS011;9097;47.028;15.444;2023-02-01T12:19:23;0.67;;;0.67;;
17943;SDS011;9097;47.028;15.444;2023-02-01T12:22:37;0.50;;;0.40;;
17943;SDS011;9097;47.028;15.444;2023-02-01T12:25:56;2.07;;;0.10;;
17943;SDS011;9097;47.028;15.444;2023-02-01T12:29:15;0.10;;;0.10;;
17943;SDS011;9097;47.028;15.444;2023-02-01T12:32:40;0.10;;;0.10;;
17943;SDS011;9097;47.028;15.444;2023-02-01T12:35:59;0.10;;;0.10;;
17943;SDS011;9097;47.028;15.444;2023-02-01T12:39:14;0.00;;;0.00;;
17943;SDS011;9097;47.028;15.444;2023-02-01T12:42:24;0.17;;;0.07;;
17943;SDS011;9097;47.028;15.444;2023-02-01T12:45:30;0.00;;;0.00;;
17943;SDS011;9097;47.028;15.444;2023-02-01T12:48:39;0.10;;;0.10;;
17943;SDS011;9097;47.028;15.444;2023-02-01T12:51:49;0.10;;;0.10;;
17943;SDS011;9097;47.028;15.444;2023-02-01T12:54:55;0.00;;;0.00;;
17943;SDS011;9097;47.028;15.444;2023-02-01T12:58:04;0.43;;;0.20;;
17943;SDS011;9097;47.028;15.444;2023-02-01T13:01:12;0.00;;;0.00;;
17943;SDS011;9097;47.028;15.444;2023-02-01T13:04:20;0.10;;;0.00;;
17943;SDS011;9097;47.028;15.444;2023-02-01T13:07:30;0.00;;;0.00;;
17943;SDS011;9097;47.028;15.444;2023-02-01T13:10:38;0.37;;;0.10;;
17943;SDS011;9097;47.028;15.444;2023-02-01T13:13:48;0.10;;;0.10;;
17943;SDS011;9097;47.028;15.444;2023-02-01T13:16:57;0.00;;;0.00;;
17943;SDS011;9097;47.028;15.444;2023-02-01T13:20:03;0.10;;;0.00;;
17943;SDS011;9097;47.028;15.444;2023-02-01T13:23:08;0.00;;;0.00;;
17943;SDS011;9097;47.028;15.444;2023-02-01T13:26:26;2.37;;;0.10;;
17943;SDS011;9097;47.028;15.444;2023-02-01T13:29:28;0.10;;;0.00;;
17943;SDS011;9097;47.028;15.444;2023-02-01T13:36:08;0.00;;;0.00;;
17943;SDS011;9097;47.028;15.444;2023-02-01T13:42:51;0.10;;;0.10;;
17943;SDS011;9097;47.028;15.444;2023-02-01T13:45:57;0.20;;;0.10;;
17943;SDS011;9097;47.028;15.444;2023-02-01T13:49:04;0.10;;;0.10;;
17943;SDS011;9097;47.028;15.444;2023-02-01T13:52:17;0.13;;;0.10;;
17943;SDS011;9097;47.028;15.444;2023-02-01T13:55:32;2.57;;;0.20;;
17943;SDS011;9097;47.028;15.444;2023-02-01T13:58:38;0.00;;;0.00;;
17943;SDS011;9097;47.028;15.444;2023-02-01T14:01:42;0.50;;;0.20;;
17943;SDS011;9097;47.028;15.444;2023-02-01T14:04:45;0.20;;;0.10;;
17943;SDS011;9097;47.028;15.444;2023-02-01T14:08:02;0.70;;;0.10;;
17943;SDS011;9097;47.028;15.444;2023-02-01T14:14:41;0.20;;;0.20;;
17943;SDS011;9097;47.028;15.444;2023-02-01T14:17:43;0.83;;;0.10;;
17943;SDS011;9097;47.028;15.444;2023-02-01T14:20:46;0.10;;;0.10;;
17943;SDS011;9097;47.028;15.444;2023-02-01T14:23:57;0.43;;;0.20;;
17943;SDS011;9097;47.028;15.444;2023-02-01T14:27:02;0.23;;;0.10;;
17943;SDS011;9097;47.028;15.444;2023-02-01T14:30:20;1.17;;;0.20;;
17943;SDS011;9097;47.028;15.444;2023-02-01T14:33:25;0.87;;;0.20;;
17943;SDS011;9097;47.028;15.444;2023-02-01T14:36:38;0.70;;;0.17;;
17943;SDS011;9097;47.028;15.444;2023-02-01T14:39:50;0.20;;;0.20;;
17943;SDS011;9097;47.028;15.444;2023-02-01T14:42:54;0.33;;;0.20;;
17943;SDS011;9097;47.028;15.444;2023-02-01T14:45:58;4.00;;;0.40;;
17943;SDS011;9097;47.028;15.444;2023-02-01T14:49:01;0.17;;;0.10;;
17943;SDS011;9097;47.028;15.444;2023-02-01T14:52:05;1.17;;;0.27;;
17943;SDS011;9097;47.028;15.444;2023-02-01T14:55:11;0.20;;;0.10;;
17943;SDS011;9097;47.028;15.444;2023-02-01T14:58:16;0.43;;;0.20;;
17943;SDS011;9097;47.028;15.444;2023-02-01T15:01:22;0.40;;;0.20;;
17943;SDS011;9097;47.028;15.444;2023-02-01T15:04:26;0.47;;;0.20;;
17943;SDS011;9097;47.028;15.444;2023-02-01T15:07:28;0.30;;;0.20;;
17943;SDS011;9097;47.028;15.444;2023-02-01T15:10:31;0.10;;;0.10;;
17943;SDS011;9097;47.028;15.444;2023-02-01T15:13:47;0.90;;;0.20;;
17943;SDS011;9097;47.028;15.444;2023-02-01T15:16:55;0.20;;;0.20;;
17943;SDS011;9097;47.028;15.444;2023-02-01T15:19:58;0.37;;;0.13;;
17943;SDS011;9097;47.028;15.444;2023-02-01T15:23:02;0.83;;;0.20;;
17943;SDS011;9097;47.028;15.444;2023-02-01T15:26:05;0.10;;;0.10;;
17943;SDS011;9097;47.028;15.444;2023-02-01T15:29:12;2.87;;;0.30;;
17943;SDS011;9097;47.028;15.444;2023-02-01T15:35:36;0.33;;;0.20;;
17943;SDS011;9097;47.028;15.444;2023-02-01T15:38:43;1.23;;;0.40;;
17943;SDS011;9097;47.028;15.444;2023-02-01T15:41:47;1.00;;;0.30;;
17943;SDS011;9097;47.028;15.444;2023-02-01T15:44:50;0.50;;;0.33;;
17943;SDS011;9097;47.028;15.444;2023-02-01T15:47:55;0.97;;;0.60;;
17943;SDS011;9097;47.028;15.444;2023-02-01T15:50:58;0.30;;;0.20;;
17943;SDS011;9097;47.028;15.444;2023-02-01T15:54:03;0.60;;;0.27;;
17943;SDS011;9097;47.028;15.444;2023-02-01T15:57:08;0.37;;;0.27;;
17943;SDS011;9097;47.028;15.444;2023-02-01T16:00:18;0.50;;;0.20;;
17943;SDS011;9097;47.028;15.444;2023-02-01T16:03:28;1.50;;;0.63;;
17943;SDS011;9097;47.028;15.444;2023-02-01T16:06:36;1.03;;;0.17;;
17943;SDS011;9097;47.028;15.444;2023-02-01T16:09:50;0.70;;;0.27;;
17943;SDS011;9097;47.028;15.444;2023-02-01T16:12:56;0.20;;;0.10;;
17943;SDS011;9097;47.028;15.444;2023-02-01T16:16:00;0.13;;;0.10;;
17943;SDS011;9097;47.028;15.444;2023-02-01T16:19:09;0.00;;;0.00;;
17943;SDS011;9097;47.028;15.444;2023-02-01T16:22:11;0.10;;;0.10;;
17943;SDS011;9097;47.028;15.444;2023-02-01T16:25:14;0.10;;;0.10;;
17943;SDS011;9097;47.028;15.444;2023-02-01T16:28:16;0.30;;;0.20;;
17943;SDS011;9097;47.028;15.444;2023-02-01T16:31:19;0.50;;;0.30;;
17943;SDS011;9097;47.028;15.444;2023-02-01T16:34:29;0.60;;;0.30;;
17943;SDS011;9097;47.028;15.444;2023-02-01T16:37:32;0.10;;;0.10;;
17943;SDS011;9097;47.028;15.444;2023-02-01T16:40:36;0.10;;;0.10;;
17943;SDS011;9097;47.028;15.444;2023-02-01T16:43:39;0.23;;;0.20;;
17943;SDS011;9097;47.028;15.444;2023-02-01T16:46:42;1.20;;;0.23;;
17943;SDS011;9097;47.028;15.444;2023-02-01T16:49:48;0.40;;;0.37;;
17943;SDS011;9097;47.028;15.444;2023-02-01T16:52:51;0.40;;;0.20;;
17943;SDS011;9097;47.028;15.444;2023-02-01T16:55:54;0.67;;;0.13;;
17943;SDS011;9097;47.028;15.444;2023-02-01T16:58:57;0.20;;;0.20;;
17943;SDS011;9097;47.028;15.444;2023-02-01T17:01:59;0.20;;;0.20;;
17943;SDS011;9097;47.028;15.444;2023-02-01T17:05:04;0.10;;;0.10;;
17943;SDS011;9097;47.028;15.444;2023-02-01T17:08:07;0.40;;;0.20;;
17943;SDS011;9097;47.028;15.444;2023-02-01T17:11:14;0.20;;;0.10;;
17943;SDS011;9097;47.028;15.444;2023-02-01T17:14:17;0.20;;;0.10;;
17943;SDS011;9097;47.028;15.444;2023-02-01T17:17:21;0.20;;;0.20;;
17943;SDS011;9097;47.028;15.444;2023-02-01T17:20:27;0.53;;;0.53;;
17943;SDS011;9097;47.028;15.444;2023-02-01T17:23:35;0.20;;;0.20;;
17943;SDS011;9097;47.028;15.444;2023-02-01T17:26:39;2.20;;;0.30;;
17943;SDS011;9097;47.028;15.444;2023-02-01T17:29:41;0.40;;;0.30;;
17943;SDS011;9097;47.028;15.444;2023-02-01T17:32:46;0.57;;;0.30;;
17943;SDS011;9097;47.028;15.444;2023-02-01T17:35:50;0.17;;;0.17;;
17943;SDS011;9097;47.028;15.444;2023-02-01T17:38:56;0.40;;;0.30;;
17943;SDS011;9097;47.028;15.444;2023-02-01T17:41:59;1.13;;;0.57;;
17943;SDS011;9097;47.028;15.444;2023-02-01T17:45:10;0.40;;;0.23;;
17943;SDS011;9097;47.028;15.444;2023-02-01T17:48:21;0.87;;;0.33;;
17943;SDS011;9097;47.028;15.444;2023-02-01T17:51:25;0.57;;;0.10;;
17943;SDS011;9097;47.028;15.444;2023-02-01T17:54:28;0.33;;;0.20;;
17943;SDS011;9097;47.028;15.444;2023-02-01T17:57:33;0.53;;;0.23;;
17943;SDS011;9097;47.028;15.444;2023-02-01T18:00:36;0.03;;;0.03;;
17943;SDS011;9097;47.028;15.444;2023-02-01T18:03:39;0.43;;;0.37;;
17943;SDS011;9097;47.028;15.444;2023-02-01T18:06:44;0.67;;;0.33;;
17943;SDS011;9097;47.028;15.444;2023-02-01T18:09:46;0.50;;;0.40;;
17943;SDS011;9097;47.028;15.444;2023-02-01T18:12:49;2.60;;;0.83;;
17943;SDS011;9097;47.028;15.444;2023-02-01T18:15:51;0.23;;;0.23;;
17943;SDS011;9097;47.028;15.444;2023-02-01T18:18:55;0.50;;;0.50;;
17943;SDS011;9097;47.028;15.444;2023-02-01T18:22:02;2.30;;;0.80;;
17943;SDS011;9097;47.028;15.444;2023-02-01T18:25:09;2.83;;;0.97;;
17943;SDS011;9097;47.028;15.444;2023-02-01T18:28:17;3.13;;;0.90;;
17943;SDS011;9097;47.028;15.444;2023-02-01T18:31:21;1.90;;;0.83;;
17943;SDS011;9097;47.028;15.444;2023-02-01T18:34:26;1.50;;;0.90;;
17943;SDS011;9097;47.028;15.444;2023-02-01T18:37:31;2.57;;;1.13;;
17943;SDS011;9097;47.028;15.444;2023-02-01T18:40:35;3.43;;;1.00;;
17943;SDS011;9097;47.028;15.444;2023-02-01T18:43:40;1.23;;;0.73;;
17943;SDS011;9097;47.028;15.444;2023-02-01T18:46:43;0.60;;;0.60;;
17943;SDS011;9097;47.028;15.444;2023-02-01T18:49:46;4.27;;;1.00;;
17943;SDS011;9097;47.028;15.444;2023-02-01T18:52:53;0.97;;;0.87;;
17943;SDS011;9097;47.028;15.444;2023-02-01T18:55:56;1.30;;;0.83;;
17943;SDS011;9097;47.028;15.444;2023-02-01T18:58:59;0.67;;;0.67;;